Airfield :
LOGIN :

Register | Disclaimer

   EN    FR    IT 

 










Legend :    VFR   Marginal VFR   IFR   Intensive IFR   Very Intensive IFR
Visi :
Ceiling :
>= 8 km
>= 3000ft
5 to 8 km
1000 to 3000 ft
1500m to 5 km
500 to 1000 ft
800 to 1500m
200 to 500 ft
< 800m
< 200 ft
Symbols :   Thunderstorms  Fog  Heavy snow  Heavy precipitations  Wind > 20 kt
SIGMETs :     Misc.  Thunderstorms  Icing  Turbulence  Mountain Waves  Volcanic Ashes






- Airport Elevation : 978 ft
- IATA code : LNZ


LOWL - Linz

CURRENT METAR :
  • 280750Z 05004KT 8000 FEW004 OVC005 00/M00 Q1018 NOSIG

EXPIRED METARs :
  • 280720Z AUTO 08005KT 7000 FEW004 OVC005 00/M00 Q1017 TEMPO BKN004
  • 280650Z AUTO 08005KT 6000 FEW004 OVC005 00/M00 Q1017 TEMPO BKN004
  • 280620Z AUTO 08003KT 9000 FEW005 OVC006 00/M00 Q1017 TEMPO BKN005
  • 280550Z AUTO 09004KT 7000 BKN007 00/M00 Q1017 NOSIG
  • 280520Z AUTO 11005KT 8000 BKN007 00/M00 Q1017 NOSIG
  • 280450Z AUTO VRB01KT 5000 BR BKN007 M01/M01 Q1017 TEMPO 3000 BR BKN005

TAF TAF LOWL
Valid from the 28 at 06:00 until the 29 at 06:00 UTC


280515Z 2806/2906 09005KT 7000 BKN012 TX03/2814Z TNM00/2806Z
TEMPO 2806/2810 4000 BKN005
BECMG 2814/2816 VRB02KT FEW012 BKN070
TEMPO 2820/2906 -RA



MET'MAP, your aeronautical weather chart ! - Copyright ORBIFLY December 2007 - Disclaimer

ORBIFLY MET'MAP TEAM :

Programming & Development : Alexandra Zaïnal
Original concept : Baudouin d'Aumeries
Technical & hardware support : Manuel Goepfert
Assistance : Marc-Olivier Méhu




SOURCES & CREDITS :

   NOAA